Alpine, Virginia
Current Conditions -  °F | °C
As of 7:15 PM on Thursday 27 Nov 2014 (Local Time) from K8W2 Reporting Station
Overcast Overcast  
Wind Chill: 32°   Ceiling: 7000
Heat Index: 32°   Visibility: 10mi
Dew Point: 26°   Wind: 0mph
Humidity: 79%   Direction: NA
Pressure: 30.15"   Gusts: NA
Location:  38.6726°N, 78.6691°W
Report Text: K8W2 280015Z AUTO 00000KT 10SM OVC070 00/M03 A3015 RMK AO1 T00011031
Loading
Personal Weather Stations






























Interactive Weather Map New forecast layout! Learn more

10-Day Weather Forecast

Advertisements
Track Severe Weather on mobile